sensor_id;sensor_type;location;lat;lon;timestamp;P1;durP1;ratioP1;P2;durP2;ratioP2
29954;SDS011;16812;51.168;6.840;2022-07-15T00:00:55;5.40;;;2.63;;
29954;SDS011;16812;51.168;6.840;2022-07-15T00:03:22;7.80;;;3.33;;
29954;SDS011;16812;51.168;6.840;2022-07-15T00:05:49;3.63;;;2.70;;
29954;SDS011;16812;51.168;6.840;2022-07-15T00:08:17;5.47;;;3.10;;
29954;SDS011;16812;51.168;6.840;2022-07-15T00:10:44;4.97;;;3.00;;
29954;SDS011;16812;51.168;6.840;2022-07-15T00:13:12;4.87;;;2.63;;
29954;SDS011;16812;51.168;6.840;2022-07-15T00:15:39;5.80;;;3.03;;
29954;SDS011;16812;51.168;6.840;2022-07-15T00:18:06;6.13;;;2.77;;
29954;SDS011;16812;51.168;6.840;2022-07-15T00:20:34;11.30;;;3.33;;
29954;SDS011;16812;51.168;6.840;2022-07-15T00:23:01;7.00;;;2.93;;
29954;SDS011;16812;51.168;6.840;2022-07-15T00:25:28;10.23;;;2.93;;
29954;SDS011;16812;51.168;6.840;2022-07-15T00:27:56;4.13;;;2.80;;
29954;SDS011;16812;51.168;6.840;2022-07-15T00:30:27;8.80;;;3.13;;
29954;SDS011;16812;51.168;6.840;2022-07-15T00:32:55;6.00;;;3.03;;
29954;SDS011;16812;51.168;6.840;2022-07-15T00:35:22;8.33;;;4.10;;
29954;SDS011;16812;51.168;6.840;2022-07-15T00:37:49;7.37;;;3.10;;
29954;SDS011;16812;51.168;6.840;2022-07-15T00:40:17;9.53;;;4.10;;
29954;SDS011;16812;51.168;6.840;2022-07-15T00:42:44;7.90;;;3.23;;
29954;SDS011;16812;51.168;6.840;2022-07-15T00:45:12;6.27;;;3.17;;
29954;SDS011;16812;51.168;6.840;2022-07-15T00:47:41;8.07;;;2.77;;
29954;SDS011;16812;51.168;6.840;2022-07-15T00:50:08;7.53;;;3.13;;
29954;SDS011;16812;51.168;6.840;2022-07-15T00:52:37;10.27;;;3.10;;
29954;SDS011;16812;51.168;6.840;2022-07-15T00:55:05;11.33;;;3.67;;
29954;SDS011;16812;51.168;6.840;2022-07-15T00:57:33;6.43;;;3.40;;
29954;SDS011;16812;51.168;6.840;2022-07-15T01:00:03;8.80;;;3.57;;
29954;SDS011;16812;51.168;6.840;2022-07-15T01:02:31;6.87;;;3.30;;
29954;SDS011;16812;51.168;6.840;2022-07-15T01:05:00;5.07;;;2.93;;
29954;SDS011;16812;51.168;6.840;2022-07-15T01:07:30;8.30;;;3.60;;
29954;SDS011;16812;51.168;6.840;2022-07-15T01:09:57;9.23;;;3.30;;
29954;SDS011;16812;51.168;6.840;2022-07-15T01:12:24;4.37;;;2.40;;
29954;SDS011;16812;51.168;6.840;2022-07-15T01:14:52;8.10;;;2.60;;
29954;SDS011;16812;51.168;6.840;2022-07-15T01:17:19;10.87;;;2.70;;
29954;SDS011;16812;51.168;6.840;2022-07-15T01:19:47;8.80;;;3.07;;
29954;SDS011;16812;51.168;6.840;2022-07-15T01:22:16;7.57;;;3.13;;
29954;SDS011;16812;51.168;6.840;2022-07-15T01:24:43;6.37;;;2.80;;
29954;SDS011;16812;51.168;6.840;2022-07-15T01:27:17;8.23;;;3.87;;
29954;SDS011;16812;51.168;6.840;2022-07-15T01:29:45;8.43;;;3.03;;
29954;SDS011;16812;51.168;6.840;2022-07-15T01:32:13;10.07;;;3.80;;
29954;SDS011;16812;51.168;6.840;2022-07-15T01:34:40;7.40;;;3.67;;
29954;SDS011;16812;51.168;6.840;2022-07-15T01:37:07;7.07;;;3.00;;
29954;SDS011;16812;51.168;6.840;2022-07-15T01:39:40;7.70;;;3.10;;
29954;SDS011;16812;51.168;6.840;2022-07-15T01:42:08;9.73;;;3.00;;
29954;SDS011;16812;51.168;6.840;2022-07-15T01:44:35;12.50;;;3.57;;
29954;SDS011;16812;51.168;6.840;2022-07-15T01:47:03;4.37;;;2.73;;
29954;SDS011;16812;51.168;6.840;2022-07-15T01:49:33;5.73;;;2.90;;
29954;SDS011;16812;51.168;6.840;2022-07-15T01:52:09;8.10;;;2.70;;
29954;SDS011;16812;51.168;6.840;2022-07-15T01:54:38;7.27;;;2.83;;
29954;SDS011;16812;51.168;6.840;2022-07-15T01:57:07;5.60;;;2.83;;
29954;SDS011;16812;51.168;6.840;2022-07-15T01:59:44;10.47;;;3.70;;
29954;SDS011;16812;51.168;6.840;2022-07-15T02:02:16;5.20;;;2.63;;
29954;SDS011;16812;51.168;6.840;2022-07-15T02:04:43;13.60;;;3.17;;
29954;SDS011;16812;51.168;6.840;2022-07-15T02:07:10;6.90;;;3.00;;
29954;SDS011;16812;51.168;6.840;2022-07-15T02:09:38;7.10;;;3.30;;
29954;SDS011;16812;51.168;6.840;2022-07-15T02:12:05;9.07;;;3.13;;
29954;SDS011;16812;51.168;6.840;2022-07-15T02:14:40;8.50;;;3.33;;
29954;SDS011;16812;51.168;6.840;2022-07-15T02:17:07;5.50;;;2.70;;
29954;SDS011;16812;51.168;6.840;2022-07-15T02:19:39;12.60;;;3.17;;
29954;SDS011;16812;51.168;6.840;2022-07-15T02:22:06;10.10;;;3.13;;
29954;SDS011;16812;51.168;6.840;2022-07-15T02:24:33;6.03;;;3.47;;
29954;SDS011;16812;51.168;6.840;2022-07-15T02:27:01;8.23;;;2.70;;
29954;SDS011;16812;51.168;6.840;2022-07-15T02:29:29;5.97;;;2.97;;
29954;SDS011;16812;51.168;6.840;2022-07-15T02:31:57;10.63;;;3.87;;
29954;SDS011;16812;51.168;6.840;2022-07-15T02:34:24;5.60;;;3.00;;
29954;SDS011;16812;51.168;6.840;2022-07-15T02:36:52;9.23;;;2.90;;
29954;SDS011;16812;51.168;6.840;2022-07-15T02:39:19;5.00;;;3.13;;
29954;SDS011;16812;51.168;6.840;2022-07-15T02:41:46;5.57;;;2.90;;
29954;SDS011;16812;51.168;6.840;2022-07-15T02:44:14;7.53;;;2.83;;
29954;SDS011;16812;51.168;6.840;2022-07-15T02:46:46;9.97;;;3.03;;
29954;SDS011;16812;51.168;6.840;2022-07-15T02:49:20;11.33;;;3.80;;
29954;SDS011;16812;51.168;6.840;2022-07-15T02:51:47;10.57;;;4.13;;
29954;SDS011;16812;51.168;6.840;2022-07-15T02:54:14;6.97;;;3.30;;
29954;SDS011;16812;51.168;6.840;2022-07-15T02:56:42;7.47;;;2.87;;
29954;SDS011;16812;51.168;6.840;2022-07-15T02:59:09;9.07;;;2.97;;
29954;SDS011;16812;51.168;6.840;2022-07-15T03:01:36;6.10;;;3.10;;
29954;SDS011;16812;51.168;6.840;2022-07-15T03:04:03;7.90;;;3.17;;
29954;SDS011;16812;51.168;6.840;2022-07-15T03:06:32;5.43;;;3.10;;
29954;SDS011;16812;51.168;6.840;2022-07-15T03:08:59;14.03;;;4.30;;
29954;SDS011;16812;51.168;6.840;2022-07-15T03:11:27;12.37;;;3.37;;
29954;SDS011;16812;51.168;6.840;2022-07-15T03:13:54;9.03;;;3.40;;
29954;SDS011;16812;51.168;6.840;2022-07-15T03:16:21;4.23;;;3.13;;
29954;SDS011;16812;51.168;6.840;2022-07-15T03:18:51;11.17;;;4.00;;
29954;SDS011;16812;51.168;6.840;2022-07-15T03:21:18;9.83;;;3.23;;
29954;SDS011;16812;51.168;6.840;2022-07-15T03:23:49;12.20;;;3.83;;
29954;SDS011;16812;51.168;6.840;2022-07-15T03:26:16;10.10;;;3.30;;
29954;SDS011;16812;51.168;6.840;2022-07-15T03:28:44;5.00;;;3.73;;
29954;SDS011;16812;51.168;6.840;2022-07-15T03:31:12;6.53;;;3.27;;
29954;SDS011;16812;51.168;6.840;2022-07-15T03:33:40;14.20;;;3.00;;
29954;SDS011;16812;51.168;6.840;2022-07-15T03:36:08;7.80;;;3.60;;
29954;SDS011;16812;51.168;6.840;2022-07-15T03:38:35;11.57;;;3.80;;
29954;SDS011;16812;51.168;6.840;2022-07-15T03:41:05;7.90;;;3.37;;
29954;SDS011;16812;51.168;6.840;2022-07-15T03:43:34;11.30;;;3.60;;
29954;SDS011;16812;51.168;6.840;2022-07-15T03:46:01;8.63;;;4.30;;
29954;SDS011;16812;51.168;6.840;2022-07-15T03:48:32;8.43;;;3.60;;
29954;SDS011;16812;51.168;6.840;2022-07-15T03:50:59;9.90;;;3.90;;
29954;SDS011;16812;51.168;6.840;2022-07-15T03:53:26;10.33;;;4.33;;
29954;SDS011;16812;51.168;6.840;2022-07-15T03:55:53;8.70;;;4.30;;
29954;SDS011;16812;51.168;6.840;2022-07-15T03:58:22;11.77;;;4.27;;
29954;SDS011;16812;51.168;6.840;2022-07-15T04:00:49;11.23;;;4.60;;
29954;SDS011;16812;51.168;6.840;2022-07-15T04:03:16;10.30;;;4.90;;
29954;SDS011;16812;51.168;6.840;2022-07-15T04:05:44;7.90;;;4.30;;
29954;SDS011;16812;51.168;6.840;2022-07-15T04:08:11;8.87;;;4.10;;
29954;SDS011;16812;51.168;6.840;2022-07-15T04:10:39;15.90;;;4.40;;
29954;SDS011;16812;51.168;6.840;2022-07-15T04:13:06;12.70;;;4.60;;
29954;SDS011;16812;51.168;6.840;2022-07-15T04:15:35;13.63;;;4.53;;
29954;SDS011;16812;51.168;6.840;2022-07-15T04:18:03;10.03;;;4.17;;
29954;SDS011;16812;51.168;6.840;2022-07-15T04:20:31;9.23;;;4.53;;
29954;SDS011;16812;51.168;6.840;2022-07-15T04:22:59;11.80;;;4.23;;
29954;SDS011;16812;51.168;6.840;2022-07-15T04:25:27;9.63;;;4.10;;
29954;SDS011;16812;51.168;6.840;2022-07-15T04:27:54;16.73;;;4.80;;
29954;SDS011;16812;51.168;6.840;2022-07-15T04:30:25;14.00;;;3.93;;
29954;SDS011;16812;51.168;6.840;2022-07-15T04:32:54;8.90;;;3.87;;
29954;SDS011;16812;51.168;6.840;2022-07-15T04:35:25;19.70;;;4.40;;
29954;SDS011;16812;51.168;6.840;2022-07-15T04:37:58;7.50;;;4.10;;
29954;SDS011;16812;51.168;6.840;2022-07-15T04:40:27;16.03;;;3.77;;
29954;SDS011;16812;51.168;6.840;2022-07-15T04:42:54;9.30;;;3.50;;
29954;SDS011;16812;51.168;6.840;2022-07-15T04:45:21;12.30;;;4.20;;
29954;SDS011;16812;51.168;6.840;2022-07-15T04:47:49;10.57;;;4.47;;
29954;SDS011;16812;51.168;6.840;2022-07-15T04:50:26;6.77;;;3.50;;
29954;SDS011;16812;51.168;6.840;2022-07-15T04:52:54;10.60;;;4.50;;
29954;SDS011;16812;51.168;6.840;2022-07-15T04:55:22;10.70;;;4.13;;
29954;SDS011;16812;51.168;6.840;2022-07-15T04:57:59;13.07;;;4.33;;
29954;SDS011;16812;51.168;6.840;2022-07-15T05:00:26;8.97;;;3.50;;
29954;SDS011;16812;51.168;6.840;2022-07-15T05:02:54;6.97;;;3.73;;
29954;SDS011;16812;51.168;6.840;2022-07-15T05:05:21;9.43;;;4.10;;
29954;SDS011;16812;51.168;6.840;2022-07-15T05:07:50;8.43;;;3.70;;
29954;SDS011;16812;51.168;6.840;2022-07-15T05:10:18;8.20;;;4.00;;
29954;SDS011;16812;51.168;6.840;2022-07-15T05:12:55;7.87;;;4.20;;
29954;SDS011;16812;51.168;6.840;2022-07-15T05:15:24;11.73;;;4.53;;
29954;SDS011;16812;51.168;6.840;2022-07-15T05:17:51;9.80;;;4.27;;
29954;SDS011;16812;51.168;6.840;2022-07-15T05:20:20;8.20;;;4.13;;
29954;SDS011;16812;51.168;6.840;2022-07-15T05:22:48;8.60;;;4.03;;
29954;SDS011;16812;51.168;6.840;2022-07-15T05:25:18;12.50;;;4.00;;
29954;SDS011;16812;51.168;6.840;2022-07-15T05:27:45;11.10;;;4.33;;
29954;SDS011;16812;51.168;6.840;2022-07-15T05:30:14;7.60;;;3.90;;
29954;SDS011;16812;51.168;6.840;2022-07-15T05:32:42;13.07;;;4.10;;
29954;SDS011;16812;51.168;6.840;2022-07-15T05:35:15;6.53;;;3.50;;
29954;SDS011;16812;51.168;6.840;2022-07-15T05:37:42;8.23;;;3.97;;
29954;SDS011;16812;51.168;6.840;2022-07-15T05:40:15;7.90;;;3.47;;
29954;SDS011;16812;51.168;6.840;2022-07-15T05:42:50;7.53;;;3.30;;
29954;SDS011;16812;51.168;6.840;2022-07-15T05:45:17;8.90;;;3.37;;
29954;SDS011;16812;51.168;6.840;2022-07-15T05:47:51;5.13;;;3.63;;
29954;SDS011;16812;51.168;6.840;2022-07-15T05:50:23;13.10;;;4.20;;
29954;SDS011;16812;51.168;6.840;2022-07-15T05:52:53;8.47;;;3.97;;
29954;SDS011;16812;51.168;6.840;2022-07-15T05:55:20;5.10;;;3.00;;
29954;SDS011;16812;51.168;6.840;2022-07-15T05:57:49;7.90;;;3.77;;
29954;SDS011;16812;51.168;6.840;2022-07-15T06:00:21;5.93;;;3.23;;
29954;SDS011;16812;51.168;6.840;2022-07-15T06:02:48;6.90;;;3.00;;
29954;SDS011;16812;51.168;6.840;2022-07-15T06:05:20;8.87;;;2.90;;
29954;SDS011;16812;51.168;6.840;2022-07-15T06:07:51;9.70;;;2.67;;
29954;SDS011;16812;51.168;6.840;2022-07-15T06:10:24;6.80;;;2.97;;
29954;SDS011;16812;51.168;6.840;2022-07-15T06:12:52;6.30;;;2.77;;
29954;SDS011;16812;51.168;6.840;2022-07-15T06:15:20;9.57;;;2.70;;
29954;SDS011;16812;51.168;6.840;2022-07-15T06:17:48;11.40;;;3.97;;
29954;SDS011;16812;51.168;6.840;2022-07-15T06:20:19;8.27;;;2.60;;
29954;SDS011;16812;51.168;6.840;2022-07-15T06:22:46;9.47;;;2.50;;
29954;SDS011;16812;51.168;6.840;2022-07-15T06:25:14;4.50;;;2.80;;
29954;SDS011;16812;51.168;6.840;2022-07-15T06:27:42;7.47;;;2.43;;
29954;SDS011;16812;51.168;6.840;2022-07-15T06:30:11;5.97;;;1.97;;
29954;SDS011;16812;51.168;6.840;2022-07-15T06:32:38;7.33;;;2.60;;
29954;SDS011;16812;51.168;6.840;2022-07-15T06:35:06;6.83;;;2.37;;
29954;SDS011;16812;51.168;6.840;2022-07-15T06:37:33;8.60;;;3.13;;
29954;SDS011;16812;51.168;6.840;2022-07-15T06:40:00;7.53;;;2.70;;
29954;SDS011;16812;51.168;6.840;2022-07-15T06:42:30;6.43;;;2.43;;
29954;SDS011;16812;51.168;6.840;2022-07-15T06:45:03;9.80;;;2.13;;
29954;SDS011;16812;51.168;6.840;2022-07-15T06:47:31;6.53;;;2.60;;
29954;SDS011;16812;51.168;6.840;2022-07-15T06:49:59;3.23;;;2.03;;
29954;SDS011;16812;51.168;6.840;2022-07-15T06:52:27;6.10;;;2.00;;
29954;SDS011;16812;51.168;6.840;2022-07-15T06:54:55;5.03;;;2.20;;
29954;SDS011;16812;51.168;6.840;2022-07-15T06:57:23;4.77;;;2.10;;
29954;SDS011;16812;51.168;6.840;2022-07-15T06:59:52;5.27;;;2.00;;
29954;SDS011;16812;51.168;6.840;2022-07-15T07:02:22;9.37;;;1.87;;
29954;SDS011;16812;51.168;6.840;2022-07-15T07:04:51;5.67;;;1.70;;
29954;SDS011;16812;51.168;6.840;2022-07-15T07:07:18;6.27;;;1.80;;
29954;SDS011;16812;51.168;6.840;2022-07-15T07:09:45;5.83;;;2.10;;
29954;SDS011;16812;51.168;6.840;2022-07-15T07:12:12;5.30;;;2.57;;
29954;SDS011;16812;51.168;6.840;2022-07-15T07:14:40;7.20;;;1.93;;
29954;SDS011;16812;51.168;6.840;2022-07-15T07:17:07;8.80;;;2.20;;
29954;SDS011;16812;51.168;6.840;2022-07-15T07:19:34;4.90;;;1.80;;
29954;SDS011;16812;51.168;6.840;2022-07-15T07:22:03;7.43;;;2.00;;
29954;SDS011;16812;51.168;6.840;2022-07-15T07:24:30;4.70;;;1.73;;
29954;SDS011;16812;51.168;6.840;2022-07-15T07:26:57;5.20;;;1.60;;
29954;SDS011;16812;51.168;6.840;2022-07-15T07:29:31;5.13;;;1.83;;
29954;SDS011;16812;51.168;6.840;2022-07-15T07:31:59;4.47;;;1.90;;
29954;SDS011;16812;51.168;6.840;2022-07-15T07:34:26;3.43;;;1.80;;
29954;SDS011;16812;51.168;6.840;2022-07-15T07:36:53;3.20;;;1.63;;
29954;SDS011;16812;51.168;6.840;2022-07-15T07:39:21;5.07;;;1.97;;
29954;SDS011;16812;51.168;6.840;2022-07-15T07:41:49;5.80;;;2.57;;
29954;SDS011;16812;51.168;6.840;2022-07-15T07:44:16;7.30;;;2.40;;
29954;SDS011;16812;51.168;6.840;2022-07-15T07:46:43;4.30;;;2.93;;
29954;SDS011;16812;51.168;6.840;2022-07-15T07:49:10;3.83;;;1.87;;
29954;SDS011;16812;51.168;6.840;2022-07-15T07:51:57;10.52;;;3.70;;
29954;SDS011;16812;51.168;6.840;2022-07-15T07:54:26;5.45;;;3.25;;
29954;SDS011;16812;51.168;6.840;2022-07-15T07:56:53;7.30;;;4.10;;
29954;SDS011;16812;51.168;6.840;2022-07-15T07:59:20;6.10;;;3.45;;
29954;SDS011;16812;51.168;6.840;2022-07-15T08:01:47;6.47;;;3.83;;
29954;SDS011;16812;51.168;6.840;2022-07-15T08:04:15;13.10;;;4.73;;
29954;SDS011;16812;51.168;6.840;2022-07-15T08:06:42;8.90;;;4.60;;
29954;SDS011;16812;51.168;6.840;2022-07-15T08:09:09;8.30;;;4.10;;
29954;SDS011;16812;51.168;6.840;2022-07-15T08:11:37;7.10;;;4.93;;
29954;SDS011;16812;51.168;6.840;2022-07-15T08:14:05;8.57;;;4.50;;
29954;SDS011;16812;51.168;6.840;2022-07-15T08:16:32;11.07;;;4.50;;
29954;SDS011;16812;51.168;6.840;2022-07-15T08:19:00;9.50;;;4.90;;
29954;SDS011;16812;51.168;6.840;2022-07-15T08:21:27;7.27;;;4.93;;
29954;SDS011;16812;51.168;6.840;2022-07-15T08:23:54;7.80;;;4.13;;
29954;SDS011;16812;51.168;6.840;2022-07-15T08:26:22;12.03;;;4.63;;
29954;SDS011;16812;51.168;6.840;2022-07-15T08:28:50;10.93;;;4.93;;
29954;SDS011;16812;51.168;6.840;2022-07-15T08:31:30;6.87;;;3.97;;
29954;SDS011;16812;51.168;6.840;2022-07-15T08:33:57;11.57;;;5.50;;
29954;SDS011;16812;51.168;6.840;2022-07-15T08:36:25;9.97;;;4.20;;
29954;SDS011;16812;51.168;6.840;2022-07-15T08:38:52;13.77;;;5.37;;
29954;SDS011;16812;51.168;6.840;2022-07-15T08:41:19;6.47;;;3.87;;
29954;SDS011;16812;51.168;6.840;2022-07-15T08:43:47;6.60;;;3.60;;
29954;SDS011;16812;51.168;6.840;2022-07-15T08:46:15;5.07;;;3.40;;
29954;SDS011;16812;51.168;6.840;2022-07-15T08:48:45;5.43;;;3.17;;
29954;SDS011;16812;51.168;6.840;2022-07-15T08:51:15;6.28;;;2.92;;
29954;SDS011;16812;51.168;6.840;2022-07-15T08:53:42;3.88;;;3.03;;
29954;SDS011;16812;51.168;6.840;2022-07-15T08:56:09;5.60;;;3.17;;
29954;SDS011;16812;51.168;6.840;2022-07-15T08:58:38;8.53;;;3.57;;
29954;SDS011;16812;51.168;6.840;2022-07-15T09:01:26;9.60;;;3.30;;
29954;SDS011;16812;51.168;6.840;2022-07-15T09:03:53;5.20;;;3.25;;
29954;SDS011;16812;51.168;6.840;2022-07-15T09:06:34;10.77;;;3.17;;
29954;SDS011;16812;51.168;6.840;2022-07-15T09:11:52;3.38;;;2.35;;
29954;SDS011;16812;51.168;6.840;2022-07-15T09:14:28;6.43;;;2.75;;
29954;SDS011;16812;51.168;6.840;2022-07-15T09:17:03;4.07;;;2.60;;
29954;SDS011;16812;51.168;6.840;2022-07-15T09:19:32;5.53;;;2.85;;
29954;SDS011;16812;51.168;6.840;2022-07-15T09:22:21;5.53;;;2.05;;
29954;SDS011;16812;51.168;6.840;2022-07-15T09:24:49;6.32;;;2.42;;
29954;SDS011;16812;51.168;6.840;2022-07-15T09:27:26;4.28;;;2.25;;
29954;SDS011;16812;51.168;6.840;2022-07-15T09:29:53;3.33;;;2.15;;
29954;SDS011;16812;51.168;6.840;2022-07-15T09:32:26;5.25;;;2.28;;
29954;SDS011;16812;51.168;6.840;2022-07-15T09:34:59;3.28;;;1.75;;
29954;SDS011;16812;51.168;6.840;2022-07-15T09:37:28;5.22;;;2.35;;
29954;SDS011;16812;51.168;6.840;2022-07-15T09:39:56;3.20;;;2.00;;
29954;SDS011;16812;51.168;6.840;2022-07-15T09:42:24;3.40;;;1.53;;
29954;SDS011;16812;51.168;6.840;2022-07-15T09:44:51;2.40;;;1.80;;
29954;SDS011;16812;51.168;6.840;2022-07-15T09:47:19;6.00;;;1.80;;
29954;SDS011;16812;51.168;6.840;2022-07-15T09:49:46;5.87;;;1.67;;
29954;SDS011;16812;51.168;6.840;2022-07-15T09:52:13;4.50;;;2.10;;
29954;SDS011;16812;51.168;6.840;2022-07-15T09:54:43;6.28;;;1.80;;
29954;SDS011;16812;51.168;6.840;2022-07-15T09:57:12;7.03;;;1.73;;
29954;SDS011;16812;51.168;6.840;2022-07-15T09:59:39;2.63;;;1.30;;
29954;SDS011;16812;51.168;6.840;2022-07-15T10:02:06;2.30;;;1.50;;
29954;SDS011;16812;51.168;6.840;2022-07-15T10:04:34;2.35;;;1.35;;
29954;SDS011;16812;51.168;6.840;2022-07-15T10:07:01;6.82;;;2.13;;
29954;SDS011;16812;51.168;6.840;2022-07-15T10:09:50;3.25;;;1.80;;
29954;SDS011;16812;51.168;6.840;2022-07-15T10:12:18;3.33;;;1.52;;
29954;SDS011;16812;51.168;6.840;2022-07-15T10:14:51;1.85;;;1.10;;
29954;SDS011;16812;51.168;6.840;2022-07-15T10:17:26;2.45;;;1.20;;
29954;SDS011;16812;51.168;6.840;2022-07-15T10:20:02;5.45;;;1.85;;
29954;SDS011;16812;51.168;6.840;2022-07-15T10:22:35;3.80;;;1.85;;
29954;SDS011;16812;51.168;6.840;2022-07-15T10:25:11;6.78;;;1.77;;
29954;SDS011;16812;51.168;6.840;2022-07-15T10:27:44;3.45;;;1.48;;
29954;SDS011;16812;51.168;6.840;2022-07-15T10:30:12;2.15;;;1.30;;
29954;SDS011;16812;51.168;6.840;2022-07-15T10:35:34;2.03;;;1.30;;
29954;SDS011;16812;51.168;6.840;2022-07-15T10:38:24;1.90;;;1.20;;
29954;SDS011;16812;51.168;6.840;2022-07-15T10:40:56;2.20;;;1.35;;
29954;SDS011;16812;51.168;6.840;2022-07-15T10:43:36;2.92;;;1.50;;
29954;SDS011;16812;51.168;6.840;2022-07-15T10:46:24;4.00;;;1.60;;
29954;SDS011;16812;51.168;6.840;2022-07-15T10:48:52;2.75;;;1.60;;
29954;SDS011;16812;51.168;6.840;2022-07-15T10:54:06;4.28;;;1.42;;
29954;SDS011;16812;51.168;6.840;2022-07-15T10:56:35;6.53;;;2.33;;
29954;SDS011;16812;51.168;6.840;2022-07-15T10:59:09;2.60;;;1.63;;
29954;SDS011;16812;51.168;6.840;2022-07-15T11:01:37;3.08;;;1.58;;
29954;SDS011;16812;51.168;6.840;2022-07-15T11:04:08;3.00;;;1.35;;
29954;SDS011;16812;51.168;6.840;2022-07-15T11:12:02;6.10;;;2.00;;
29954;SDS011;16812;51.168;6.840;2022-07-15T11:14:40;3.00;;;1.60;;
29954;SDS011;16812;51.168;6.840;2022-07-15T11:17:07;3.47;;;1.40;;
29954;SDS011;16812;51.168;6.840;2022-07-15T11:19:34;1.83;;;1.20;;
29954;SDS011;16812;51.168;6.840;2022-07-15T11:22:01;5.77;;;1.40;;
29954;SDS011;16812;51.168;6.840;2022-07-15T11:24:30;2.30;;;1.40;;
29954;SDS011;16812;51.168;6.840;2022-07-15T11:26:59;2.50;;;1.50;;
29954;SDS011;16812;51.168;6.840;2022-07-15T11:29:40;4.97;;;1.50;;
29954;SDS011;16812;51.168;6.840;2022-07-15T11:32:08;2.83;;;2.07;;
29954;SDS011;16812;51.168;6.840;2022-07-15T11:34:39;4.30;;;1.33;;
29954;SDS011;16812;51.168;6.840;2022-07-15T11:37:06;1.83;;;1.40;;
29954;SDS011;16812;51.168;6.840;2022-07-15T11:39:33;6.00;;;1.67;;
29954;SDS011;16812;51.168;6.840;2022-07-15T11:42:01;5.00;;;1.67;;
29954;SDS011;16812;51.168;6.840;2022-07-15T11:44:28;5.33;;;1.57;;
29954;SDS011;16812;51.168;6.840;2022-07-15T11:46:57;6.50;;;1.57;;
29954;SDS011;16812;51.168;6.840;2022-07-15T11:49:25;4.90;;;1.87;;
29954;SDS011;16812;51.168;6.840;2022-07-15T11:51:52;3.97;;;1.50;;
29954;SDS011;16812;51.168;6.840;2022-07-15T11:54:19;1.97;;;1.30;;
29954;SDS011;16812;51.168;6.840;2022-07-15T11:56:52;3.70;;;1.60;;
29954;SDS011;16812;51.168;6.840;2022-07-15T11:59:19;5.70;;;1.50;;
29954;SDS011;16812;51.168;6.840;2022-07-15T12:01:46;2.30;;;1.67;;
29954;SDS011;16812;51.168;6.840;2022-07-15T12:04:15;4.70;;;1.67;;
29954;SDS011;16812;51.168;6.840;2022-07-15T12:06:42;3.03;;;1.57;;
29954;SDS011;16812;51.168;6.840;2022-07-15T12:09:09;3.00;;;1.57;;
29954;SDS011;16812;51.168;6.840;2022-07-15T12:11:38;3.50;;;1.47;;
29954;SDS011;16812;51.168;6.840;2022-07-15T12:14:06;9.53;;;1.60;;
29954;SDS011;16812;51.168;6.840;2022-07-15T12:16:34;2.60;;;1.43;;
29954;SDS011;16812;51.168;6.840;2022-07-15T12:19:03;3.23;;;1.60;;
29954;SDS011;16812;51.168;6.840;2022-07-15T12:21:32;2.30;;;1.23;;
29954;SDS011;16812;51.168;6.840;2022-07-15T12:24:04;4.33;;;1.67;;
29954;SDS011;16812;51.168;6.840;2022-07-15T12:26:32;3.23;;;1.43;;
29954;SDS011;16812;51.168;6.840;2022-07-15T12:29:00;2.80;;;1.10;;
29954;SDS011;16812;51.168;6.840;2022-07-15T12:31:29;3.87;;;1.57;;
29954;SDS011;16812;51.168;6.840;2022-07-15T12:33:57;2.60;;;1.40;;
29954;SDS011;16812;51.168;6.840;2022-07-15T12:36:25;4.47;;;1.60;;
29954;SDS011;16812;51.168;6.840;2022-07-15T12:39:05;3.93;;;1.63;;
29954;SDS011;16812;51.168;6.840;2022-07-15T12:41:32;2.77;;;1.47;;
29954;SDS011;16812;51.168;6.840;2022-07-15T12:44:00;1.67;;;1.10;;
29954;SDS011;16812;51.168;6.840;2022-07-15T12:51:55;3.10;;;1.40;;
29954;SDS011;16812;51.168;6.840;2022-07-15T12:54:24;3.17;;;1.43;;
29954;SDS011;16812;51.168;6.840;2022-07-15T12:56:52;3.10;;;1.33;;
29954;SDS011;16812;51.168;6.840;2022-07-15T12:59:19;2.77;;;1.37;;
29954;SDS011;16812;51.168;6.840;2022-07-15T13:02:00;2.60;;;1.57;;
29954;SDS011;16812;51.168;6.840;2022-07-15T13:04:28;2.70;;;1.40;;
29954;SDS011;16812;51.168;6.840;2022-07-15T13:06:55;5.00;;;1.50;;
29954;SDS011;16812;51.168;6.840;2022-07-15T13:09:23;4.30;;;1.23;;
29954;SDS011;16812;51.168;6.840;2022-07-15T13:11:56;2.47;;;1.60;;
29954;SDS011;16812;51.168;6.840;2022-07-15T13:14:23;4.30;;;1.90;;
29954;SDS011;16812;51.168;6.840;2022-07-15T13:16:50;2.83;;;1.30;;
29954;SDS011;16812;51.168;6.840;2022-07-15T13:19:18;3.20;;;1.40;;
29954;SDS011;16812;51.168;6.840;2022-07-15T13:21:45;1.57;;;1.30;;
29954;SDS011;16812;51.168;6.840;2022-07-15T13:24:12;4.30;;;1.40;;
29954;SDS011;16812;51.168;6.840;2022-07-15T13:26:41;5.63;;;1.73;;
29954;SDS011;16812;51.168;6.840;2022-07-15T13:29:08;6.23;;;2.20;;
29954;SDS011;16812;51.168;6.840;2022-07-15T13:31:35;5.10;;;1.73;;
29954;SDS011;16812;51.168;6.840;2022-07-15T13:34:02;2.93;;;1.40;;
29954;SDS011;16812;51.168;6.840;2022-07-15T13:36:29;5.47;;;1.70;;
29954;SDS011;16812;51.168;6.840;2022-07-15T13:38:57;2.27;;;1.30;;
29954;SDS011;16812;51.168;6.840;2022-07-15T13:41:24;6.27;;;1.60;;
29954;SDS011;16812;51.168;6.840;2022-07-15T13:43:52;2.90;;;1.33;;
29954;SDS011;16812;51.168;6.840;2022-07-15T13:46:19;1.77;;;1.10;;
29954;SDS011;16812;51.168;6.840;2022-07-15T13:48:47;4.23;;;1.37;;
29954;SDS011;16812;51.168;6.840;2022-07-15T13:51:14;2.43;;;1.50;;
29954;SDS011;16812;51.168;6.840;2022-07-15T13:53:41;2.87;;;1.30;;
29954;SDS011;16812;51.168;6.840;2022-07-15T13:56:09;1.63;;;1.30;;
29954;SDS011;16812;51.168;6.840;2022-07-15T13:58:36;4.63;;;1.90;;
29954;SDS011;16812;51.168;6.840;2022-07-15T14:01:04;6.83;;;2.03;;
29954;SDS011;16812;51.168;6.840;2022-07-15T14:03:32;2.83;;;1.40;;
29954;SDS011;16812;51.168;6.840;2022-07-15T14:05:59;2.23;;;1.30;;
29954;SDS011;16812;51.168;6.840;2022-07-15T14:08:26;3.40;;;1.40;;
29954;SDS011;16812;51.168;6.840;2022-07-15T14:10:53;2.40;;;1.07;;
29954;SDS011;16812;51.168;6.840;2022-07-15T14:13:21;2.60;;;1.40;;
29954;SDS011;16812;51.168;6.840;2022-07-15T14:15:48;5.90;;;1.93;;
29954;SDS011;16812;51.168;6.840;2022-07-15T14:18:16;3.83;;;1.23;;
29954;SDS011;16812;51.168;6.840;2022-07-15T14:20:44;2.63;;;1.20;;
29954;SDS011;16812;51.168;6.840;2022-07-15T14:23:11;6.80;;;1.57;;
29954;SDS011;16812;51.168;6.840;2022-07-15T14:25:38;5.63;;;2.03;;
29954;SDS011;16812;51.168;6.840;2022-07-15T14:28:05;1.83;;;1.17;;
29954;SDS011;16812;51.168;6.840;2022-07-15T14:30:32;2.00;;;1.30;;
29954;SDS011;16812;51.168;6.840;2022-07-15T14:33:00;5.17;;;1.90;;
29954;SDS011;16812;51.168;6.840;2022-07-15T14:35:29;2.63;;;1.10;;
29954;SDS011;16812;51.168;6.840;2022-07-15T14:37:56;1.90;;;1.47;;
29954;SDS011;16812;51.168;6.840;2022-07-15T14:40:23;2.77;;;1.50;;
29954;SDS011;16812;51.168;6.840;2022-07-15T14:42:50;2.03;;;1.30;;
29954;SDS011;16812;51.168;6.840;2022-07-15T14:45:17;5.70;;;1.50;;
29954;SDS011;16812;51.168;6.840;2022-07-15T14:47:45;4.43;;;1.50;;
29954;SDS011;16812;51.168;6.840;2022-07-15T14:50:12;3.80;;;1.60;;
29954;SDS011;16812;51.168;6.840;2022-07-15T14:52:49;4.60;;;1.57;;
29954;SDS011;16812;51.168;6.840;2022-07-15T14:55:16;5.63;;;1.53;;
29954;SDS011;16812;51.168;6.840;2022-07-15T14:57:43;1.83;;;1.50;;
29954;SDS011;16812;51.168;6.840;2022-07-15T15:00:10;2.90;;;1.50;;
29954;SDS011;16812;51.168;6.840;2022-07-15T15:02:38;3.83;;;1.40;;
29954;SDS011;16812;51.168;6.840;2022-07-15T15:05:05;2.70;;;1.50;;
29954;SDS011;16812;51.168;6.840;2022-07-15T15:07:33;4.30;;;1.10;;
29954;SDS011;16812;51.168;6.840;2022-07-15T15:10:01;1.90;;;1.40;;
29954;SDS011;16812;51.168;6.840;2022-07-15T15:12:29;3.80;;;1.60;;
29954;SDS011;16812;51.168;6.840;2022-07-15T15:14:56;5.73;;;1.50;;